createdAt,value
2022-11-29T00:01:40.793Z,30.15
2022-11-29T00:04:08.956Z,28.75
2022-11-29T00:06:37.028Z,25.25
2022-11-29T00:09:11.960Z,23.40
2022-11-29T00:12:00.153Z,17.80
2022-11-29T00:14:28.580Z,17.42
2022-11-29T00:17:01.220Z,17.37
2022-11-29T00:19:28.998Z,18.67
2022-11-29T00:21:56.723Z,21.45
2022-11-29T00:24:24.496Z,18.67
2022-11-29T00:26:52.010Z,19.57
2022-11-29T00:29:19.868Z,17.17
2022-11-29T00:31:47.627Z,17.17
2022-11-29T00:34:15.112Z,16.07
2022-11-29T00:36:42.803Z,17.57
2022-11-29T00:39:12.055Z,18.25
2022-11-29T00:41:40.360Z,20.35
2022-11-29T00:44:09.630Z,23.45
2022-11-29T00:46:38.093Z,20.60
2022-11-29T00:49:06.087Z,18.80
2022-11-29T00:51:33.822Z,24.05
2022-11-29T00:54:01.844Z,25.52
2022-11-29T00:56:29.535Z,24.75
2022-11-29T00:58:57.530Z,25.52
2022-11-29T01:01:25.150Z,27.90
2022-11-29T01:03:53.226Z,26.35
2022-11-29T01:06:21.140Z,24.98
2022-11-29T01:08:50.225Z,22.00
2022-11-29T01:11:24.608Z,20.88
2022-11-29T01:13:56.755Z,17.13
2022-11-29T01:16:25.954Z,16.70
2022-11-29T01:18:53.731Z,17.55
2022-11-29T01:21:23.872Z,15.48
2022-11-29T01:23:53.470Z,16.32
2022-11-29T01:26:24.639Z,15.78
2022-11-29T01:28:55.832Z,18.05
2022-11-29T01:31:31.582Z,20.12
2022-11-29T01:34:02.457Z,23.42
2022-11-29T01:36:30.630Z,19.80
2022-11-29T01:39:04.205Z,19.73
2022-11-29T01:41:35.236Z,16.82
2022-11-29T01:44:14.131Z,15.90
2022-11-29T01:46:45.284Z,15.05
2022-11-29T01:49:21.217Z,20.32
2022-11-29T01:52:02.648Z,18.50
2022-11-29T01:54:32.580Z,20.50
2022-11-29T01:57:04.409Z,20.62
2022-11-29T01:59:34.084Z,18.07
2022-11-29T02:02:19.191Z,15.72
2022-11-29T02:04:49.419Z,14.53
2022-11-29T02:07:17.269Z,13.75
2022-11-29T02:09:45.093Z,13.30
2022-11-29T02:12:45.382Z,12.03
2022-11-29T02:15:42.499Z,10.88
2022-11-29T02:18:21.731Z,11.03
2022-11-29T02:21:12.979Z,12.47
2022-11-29T02:24:18.292Z,15.45
2022-11-29T02:27:31.198Z,16.42
2022-11-29T02:30:10.486Z,15.15
2022-11-29T02:32:51.921Z,15.63
2022-11-29T02:35:40.260Z,15.53
2022-11-29T02:38:49.559Z,15.13
2022-11-29T02:41:37.848Z,14.58
2022-11-29T02:44:31.560Z,12.58
2022-11-29T02:47:07.383Z,13.53
2022-11-29T02:50:18.227Z,15.75
2022-11-29T02:52:57.322Z,19.12
2022-11-29T02:55:57.188Z,15.32
2022-11-29T02:58:30.224Z,16.37
2022-11-29T03:01:22.814Z,14.73
2022-11-29T03:03:58.737Z,13.78
2022-11-29T03:06:57.327Z,14.40
2022-11-29T03:09:44.720Z,16.17
2022-11-29T03:12:41.933Z,15.10
2022-11-29T03:15:36.416Z,15.72
2022-11-29T03:18:50.906Z,16.20
2022-11-29T03:21:36.398Z,18.70
2022-11-29T03:24:15.857Z,16.45
2022-11-29T03:26:51.727Z,17.48
2022-11-29T03:29:29.765Z,15.03
2022-11-29T03:32:05.583Z,13.00
2022-11-29T03:35:02.862Z,20.88
2022-11-29T03:38:06.231Z,20.35
2022-11-29T03:41:02.870Z,20.17
2022-11-29T03:43:44.967Z,22.07
2022-11-29T03:46:35.011Z,21.65
2022-11-29T03:49:17.212Z,26.07
2022-11-29T03:52:02.734Z,29.77
2022-11-29T03:55:12.731Z,33.63
2022-11-29T03:57:57.586Z,35.05
2022-11-29T04:00:29.699Z,35.30
2022-11-29T04:03:22.392Z,33.60
2022-11-29T04:05:58.127Z,31.17
2022-11-29T04:08:49.194Z,31.33
2022-11-29T04:11:45.347Z,25.65
2022-11-29T04:17:38.430Z,21.30
2022-11-29T04:20:17.366Z,25.23
2022-11-29T04:23:05.830Z,21.55
2022-11-29T04:25:44.545Z,26.23
2022-11-29T04:28:40.333Z,27.65
2022-11-29T04:31:33.995Z,24.55
2022-11-29T04:34:22.394Z,27.32
2022-11-29T04:37:04.144Z,18.60
2022-11-29T04:39:52.254Z,16.70
2022-11-29T04:42:43.439Z,14.75
2022-11-29T04:45:59.546Z,15.05
2022-11-29T04:49:14.004Z,15.30
2022-11-29T04:52:13.746Z,23.45
2022-11-29T04:54:52.910Z,26.20
2022-11-29T04:58:14.641Z,23.05
2022-11-29T05:01:00.566Z,21.33
2022-11-29T05:03:56.833Z,19.32
2022-11-29T05:07:04.011Z,18.23
2022-11-29T05:09:49.448Z,22.13
2022-11-29T05:12:47.183Z,25.10
2022-11-29T05:15:29.601Z,25.45
2022-11-29T05:18:15.016Z,22.48
2022-11-29T05:21:08.246Z,43.52
2022-11-29T05:23:56.598Z,46.10
2022-11-29T05:26:32.664Z,27.20
2022-11-29T05:29:14.616Z,23.87
2022-11-29T05:32:28.642Z,23.70
2022-11-29T05:35:19.814Z,17.90
2022-11-29T05:38:04.909Z,18.52
2022-11-29T05:40:53.372Z,23.32
2022-11-29T05:44:01.008Z,18.87
2022-11-29T05:46:53.011Z,16.40
2022-11-29T05:49:46.020Z,24.87
2022-11-29T05:52:45.208Z,37.33
2022-11-29T05:55:42.768Z,29.00
2022-11-29T05:58:30.542Z,36.75
2022-11-29T06:01:03.564Z,42.40
2022-11-29T06:03:43.066Z,41.85
2022-11-29T06:06:40.368Z,41.75
2022-11-29T06:09:31.220Z,60.58
2022-11-29T06:12:07.272Z,55.88
2022-11-29T06:15:08.688Z,58.20
2022-11-29T06:18:03.265Z,52.50
2022-11-29T06:20:54.892Z,59.25
2022-11-29T06:23:42.748Z,53.95
2022-11-29T06:26:33.276Z,58.45
2022-11-29T06:29:24.829Z,51.35
2022-11-29T06:31:57.840Z,32.90
2022-11-29T06:34:55.154Z,33.10
2022-11-29T06:37:30.984Z,34.75
2022-11-29T06:39:59.118Z,28.45
2022-11-29T06:42:26.854Z,24.92
2022-11-29T06:44:56.210Z,36.95
2022-11-29T06:47:31.493Z,27.98
2022-11-29T06:50:28.987Z,28.10
2022-11-29T06:53:35.615Z,30.82
2022-11-29T06:56:26.663Z,46.15
2022-11-29T06:59:39.847Z,61.45
2022-11-29T07:02:30.269Z,49.27
2022-11-29T07:05:24.227Z,46.05
2022-11-29T07:07:56.583Z,46.18
2022-11-29T07:10:25.279Z,47.70
2022-11-29T07:12:53.469Z,54.55
2022-11-29T07:15:23.272Z,37.78
2022-11-29T07:18:14.345Z,39.48
2022-11-29T07:21:06.086Z,39.13
2022-11-29T07:24:02.662Z,47.00
2022-11-29T07:27:08.472Z,40.95
2022-11-29T07:30:02.473Z,46.60
2022-11-29T07:32:43.647Z,53.25
2022-11-29T07:35:35.602Z,38.92
2022-11-29T07:38:39.091Z,46.53
2022-11-29T07:41:29.818Z,44.35
2022-11-29T07:44:05.807Z,244.87
2022-11-29T07:46:33.348Z,30.12
2022-11-29T07:49:01.224Z,28.73
2022-11-29T07:51:28.918Z,23.22
2022-11-29T07:53:56.593Z,22.80
2022-11-29T07:56:24.378Z,23.27
2022-11-29T07:58:51.975Z,25.45
2022-11-29T08:01:19.737Z,43.28
2022-11-29T08:03:47.550Z,32.73
2022-11-29T08:06:15.201Z,28.83
2022-11-29T08:08:44.340Z,24.25
2022-11-29T08:11:13.222Z,22.10
2022-11-29T08:13:40.768Z,24.67
2022-11-29T08:16:08.715Z,22.73
2022-11-29T08:18:36.597Z,16.87
2022-11-29T08:21:07.788Z,17.62
2022-11-29T08:23:35.450Z,17.27
2022-11-29T08:26:04.099Z,17.12
2022-11-29T08:28:31.617Z,15.13
2022-11-29T08:31:05.331Z,13.83
2022-11-29T08:33:37.410Z,10.15
2022-11-29T08:36:12.292Z,12.93
2022-11-29T08:38:40.408Z,11.65
2022-11-29T08:41:11.478Z,8.70
2022-11-29T08:43:39.824Z,14.78
2022-11-29T08:46:10.473Z,20.08
2022-11-29T08:48:39.607Z,8.10
2022-11-29T08:51:07.893Z,11.43
2022-11-29T08:53:42.001Z,15.30
2022-11-29T08:58:46.100Z,14.03
2022-11-29T09:01:17.799Z,12.10
2022-11-29T09:04:04.958Z,18.62
2022-11-29T09:06:42.548Z,7.95
2022-11-29T09:09:10.437Z,7.80
2022-11-29T09:11:38.288Z,9.65
2022-11-29T09:14:10.261Z,10.70
2022-11-29T09:16:38.732Z,14.10
2022-11-29T09:19:07.457Z,23.32
2022-11-29T09:21:36.270Z,10.90
2022-11-29T09:24:05.941Z,10.35
2022-11-29T09:26:37.435Z,87.53
2022-11-29T09:29:06.549Z,26.90
2022-11-29T09:31:35.220Z,66.45
2022-11-29T09:34:02.992Z,20.50
2022-11-29T09:36:31.504Z,16.42
2022-11-29T09:39:02.362Z,10.00
2022-11-29T09:41:56.952Z,11.93
2022-11-29T09:44:39.115Z,9.58
2022-11-29T09:47:39.500Z,8.15
2022-11-29T09:50:40.006Z,9.10
2022-11-29T09:53:31.101Z,8.45
2022-11-29T09:56:28.958Z,15.50
2022-11-29T09:59:08.002Z,10.98
2022-11-29T10:01:40.452Z,12.90
2022-11-29T10:04:22.662Z,13.30
2022-11-29T10:07:01.495Z,7.47
2022-11-29T10:09:49.902Z,8.38
2022-11-29T10:12:49.495Z,10.70
2022-11-29T10:15:27.503Z,9.73
2022-11-29T10:18:06.766Z,13.48
2022-11-29T10:20:48.762Z,11.10
2022-11-29T10:23:36.500Z,20.55
2022-11-29T10:26:07.077Z,10.15
2022-11-29T10:28:37.687Z,7.40
2022-11-29T10:31:24.567Z,10.40
2022-11-29T10:33:54.222Z,9.78
2022-11-29T10:36:50.736Z,10.88
2022-11-29T10:39:27.369Z,10.93
2022-11-29T10:41:59.748Z,10.28
2022-11-29T10:44:27.959Z,14.07
2022-11-29T10:46:56.275Z,8.50
2022-11-29T10:49:29.806Z,21.23
2022-11-29T10:51:57.545Z,5.35
2022-11-29T10:54:43.063Z,15.40
2022-11-29T10:57:17.871Z,23.83
2022-11-29T11:00:06.468Z,36.95
2022-11-29T11:02:37.664Z,9.90
2022-11-29T11:05:14.760Z,8.50
2022-11-29T11:07:42.726Z,6.95
2022-11-29T11:10:27.585Z,6.62
2022-11-29T11:13:18.778Z,7.08
2022-11-29T11:16:21.025Z,6.78
2022-11-29T11:18:57.844Z,3.70
2022-11-29T11:21:29.036Z,10.32
2022-11-29T11:24:04.110Z,7.92
2022-11-29T11:26:44.421Z,8.63
2022-11-29T11:29:22.965Z,12.03
2022-11-29T11:31:59.809Z,12.20
2022-11-29T11:34:34.365Z,43.85
2022-11-29T11:37:31.636Z,14.83
2022-11-29T11:40:20.752Z,6.83
2022-11-29T11:42:52.408Z,7.33
2022-11-29T11:45:28.949Z,6.30
2022-11-29T11:48:15.543Z,5.28
2022-11-29T11:50:53.890Z,4.12
2022-11-29T11:53:36.908Z,6.40
2022-11-29T11:56:12.025Z,5.67
2022-11-29T11:58:48.371Z,3.95
2022-11-29T12:01:30.140Z,8.65
2022-11-29T12:04:23.126Z,10.70
2022-11-29T12:07:02.480Z,16.52
2022-11-29T12:09:49.822Z,6.78
2022-11-29T12:12:28.087Z,8.08
2022-11-29T12:15:17.740Z,4.90
2022-11-29T12:17:57.587Z,5.72
2022-11-29T12:20:42.824Z,5.30
2022-11-29T12:23:48.826Z,6.75
2022-11-29T12:26:56.574Z,10.60
2022-11-29T12:29:01.690Z,5.57
2022-11-29T12:32:02.021Z,10.43
2022-11-29T12:34:44.672Z,3.95
2022-11-29T12:37:50.341Z,8.63
2022-11-29T12:40:48.952Z,13.62
2022-11-29T12:43:39.824Z,4.22
2022-11-29T12:46:15.354Z,8.68
2022-11-29T12:48:57.792Z,6.78
2022-11-29T12:51:50.877Z,6.72
2022-11-29T12:55:04.376Z,3.55
2022-11-29T12:57:49.383Z,3.95
2022-11-29T13:00:21.927Z,7.05
2022-11-29T13:03:13.632Z,5.00
2022-11-29T13:05:55.804Z,12.13
2022-11-29T13:08:51.438Z,4.33
2022-11-29T13:11:36.238Z,8.55
2022-11-29T13:14:48.954Z,2.67
2022-11-29T13:17:20.651Z,6.65
2022-11-29T13:19:54.805Z,13.00
2022-11-29T13:22:55.389Z,11.45
2022-11-29T13:25:39.845Z,9.73
2022-11-29T13:28:30.029Z,8.08
2022-11-29T13:31:09.928Z,11.43
2022-11-29T13:34:18.356Z,7.92
2022-11-29T13:37:18.599Z,8.28
2022-11-29T13:40:13.110Z,7.95
2022-11-29T13:43:15.685Z,8.08
2022-11-29T13:46:08.126Z,11.48
2022-11-29T13:48:53.067Z,17.12
2022-11-29T13:51:37.844Z,26.87
2022-11-29T13:54:25.615Z,19.52
2022-11-29T13:57:08.924Z,10.53
2022-11-29T13:59:45.736Z,12.60
2022-11-29T14:02:29.038Z,10.95
2022-11-29T14:04:56.756Z,15.30
2022-11-29T14:07:24.330Z,12.30
2022-11-29T14:10:05.652Z,18.15
2022-11-29T14:12:55.565Z,17.55
2022-11-29T14:15:28.867Z,23.62
2022-11-29T14:18:05.804Z,23.12
2022-11-29T14:20:45.051Z,20.20
2022-11-29T14:23:35.246Z,33.23
2022-11-29T14:26:11.985Z,28.52
2022-11-29T14:28:40.486Z,24.47
2022-11-29T14:31:09.257Z,36.03
2022-11-29T14:33:49.614Z,31.87
2022-11-29T14:39:46.384Z,44.15
2022-11-29T14:42:20.769Z,42.13
2022-11-29T14:45:01.013Z,60.55
2022-11-29T14:47:38.681Z,61.48
2022-11-29T14:50:10.016Z,53.13
2022-11-29T14:52:41.286Z,55.88
2022-11-29T14:55:22.866Z,73.30
2022-11-29T14:58:05.514Z,74.82
2022-11-29T15:00:50.587Z,85.60
2022-11-29T15:03:41.621Z,105.50
2022-11-29T15:06:23.782Z,89.40
2022-11-29T15:09:04.551Z,77.72
2022-11-29T15:11:52.499Z,80.10
2022-11-29T15:15:04.049Z,63.80
2022-11-29T15:18:12.755Z,91.28
2022-11-29T15:21:03.830Z,141.90
2022-11-29T15:23:44.026Z,133.25
2022-11-29T15:26:20.685Z,118.42
2022-11-29T15:28:48.392Z,100.50
2022-11-29T15:31:19.725Z,113.12
2022-11-29T15:33:49.336Z,113.60
2022-11-29T15:36:22.831Z,152.15
2022-11-29T15:38:54.680Z,167.77
2022-11-29T15:41:31.622Z,77.82
2022-11-29T15:44:02.433Z,52.85
2022-11-29T15:46:34.031Z,51.42
2022-11-29T15:49:23.884Z,67.10
2022-11-29T15:51:59.789Z,77.37
2022-11-29T15:54:44.453Z,100.18
2022-11-29T15:59:55.215Z,77.00
2022-11-29T16:02:28.331Z,72.37
2022-11-29T16:05:07.552Z,69.97
2022-11-29T16:07:36.847Z,69.80
2022-11-29T16:10:29.195Z,111.28
2022-11-29T16:12:58.688Z,65.45
2022-11-29T16:15:30.687Z,65.87
2022-11-29T16:18:19.534Z,58.00
2022-11-29T16:21:05.085Z,49.18
2022-11-29T16:23:41.581Z,42.70
2022-11-29T16:26:25.696Z,33.60
2022-11-29T16:28:58.181Z,29.67
2022-11-29T16:31:37.753Z,34.43
2022-11-29T16:34:29.874Z,45.95
2022-11-29T16:37:08.708Z,54.95
2022-11-29T16:39:39.300Z,46.25
2022-11-29T16:42:25.721Z,41.13
2022-11-29T16:48:39.916Z,33.55
2022-11-29T16:53:47.884Z,31.62
2022-11-29T16:56:18.934Z,33.08
2022-11-29T16:59:25.730Z,47.08
2022-11-29T17:03:58.987Z,49.70
2022-11-29T17:06:29.186Z,46.90
2022-11-29T17:08:59.111Z,37.50
2022-11-29T17:11:26.784Z,34.50
2022-11-29T17:13:54.607Z,41.60
2022-11-29T17:16:24.811Z,41.77
2022-11-29T17:18:53.350Z,32.35
2022-11-29T17:21:30.913Z,37.80
2022-11-29T17:23:59.100Z,39.60
2022-11-29T17:26:30.197Z,33.33
2022-11-29T17:28:59.379Z,38.53
2022-11-29T17:31:30.430Z,34.48
2022-11-29T17:34:00.413Z,36.93
2022-11-29T17:36:30.908Z,45.75
2022-11-29T17:39:00.271Z,35.55
2022-11-29T17:41:30.005Z,34.35
2022-11-29T17:43:58.374Z,43.05
2022-11-29T17:46:33.611Z,36.10
2022-11-29T17:49:05.930Z,38.80
2022-11-29T17:51:54.438Z,41.13
2022-11-29T17:54:09.882Z,45.10
2022-11-29T17:56:37.927Z,42.50
2022-11-29T17:59:06.439Z,44.03
2022-11-29T18:01:36.146Z,40.17
2022-11-29T18:04:06.236Z,38.00
2022-11-29T18:06:39.511Z,38.00
2022-11-29T18:09:10.161Z,43.68
2022-11-29T18:11:48.660Z,38.80
2022-11-29T18:14:22.093Z,34.30
2022-11-29T18:16:50.414Z,33.25
2022-11-29T18:19:21.236Z,32.38
2022-11-29T18:21:52.158Z,24.82
2022-11-29T18:24:20.022Z,40.20
2022-11-29T18:26:48.253Z,42.43
2022-11-29T18:29:17.063Z,86.15
2022-11-29T18:31:45.654Z,93.95
2022-11-29T18:34:14.520Z,69.00
2022-11-29T18:36:46.145Z,56.48
2022-11-29T18:39:17.576Z,51.37
2022-11-29T18:41:49.031Z,45.05
2022-11-29T18:44:21.184Z,47.38
2022-11-29T18:46:49.323Z,35.00
2022-11-29T18:49:19.492Z,30.27
2022-11-29T18:51:49.221Z,34.63
2022-11-29T18:54:19.078Z,35.15
2022-11-29T18:56:50.614Z,34.43
2022-11-29T18:59:19.022Z,37.48
2022-11-29T19:01:48.569Z,40.92
2022-11-29T19:04:19.841Z,55.38
2022-11-29T19:06:48.376Z,54.80
2022-11-29T19:09:20.527Z,49.00
2022-11-29T19:11:49.341Z,48.63
2022-11-29T19:14:18.371Z,49.45
2022-11-29T19:16:48.956Z,56.08
2022-11-29T19:19:18.554Z,53.70
2022-11-29T19:21:47.071Z,63.42
2022-11-29T19:24:19.218Z,60.10
2022-11-29T19:26:49.567Z,57.10
2022-11-29T19:29:17.462Z,58.92
2022-11-29T19:31:46.696Z,68.85
2022-11-29T19:34:14.856Z,66.12
2022-11-29T19:36:43.880Z,65.45
2022-11-29T19:39:15.288Z,57.20
2022-11-29T19:41:47.212Z,68.33
2022-11-29T19:44:15.818Z,64.92
2022-11-29T19:46:48.329Z,52.90
2022-11-29T19:49:16.663Z,47.03
2022-11-29T19:51:44.466Z,53.10
2022-11-29T19:54:12.687Z,40.67
2022-11-29T19:56:41.292Z,34.85
2022-11-29T19:59:10.392Z,34.55
2022-11-29T20:01:43.106Z,31.97
2022-11-29T20:04:15.543Z,27.70
2022-11-29T20:06:43.987Z,35.20
2022-11-29T20:09:14.007Z,37.00
2022-11-29T20:11:45.041Z,38.88
2022-11-29T20:14:14.081Z,59.05
2022-11-29T20:16:43.235Z,97.92
2022-11-29T20:19:16.718Z,87.97
2022-11-29T20:21:48.546Z,118.17
2022-11-29T20:24:19.037Z,85.87
2022-11-29T20:26:49.022Z,78.30
2022-11-29T20:29:20.001Z,73.52
2022-11-29T20:31:51.235Z,74.00
2022-11-29T20:34:20.660Z,70.12
2022-11-29T20:37:09.332Z,54.98
2022-11-29T20:40:01.167Z,50.33
2022-11-29T20:42:54.137Z,35.28
2022-11-29T20:45:24.283Z,39.50
2022-11-29T20:48:21.453Z,38.05
2022-11-29T20:50:59.909Z,38.20
2022-11-29T20:53:38.796Z,32.83
2022-11-29T20:56:08.779Z,30.65
2022-11-29T20:58:37.466Z,34.75
2022-11-29T21:01:07.440Z,27.85
2022-11-29T21:03:35.728Z,27.95
2022-11-29T21:06:05.848Z,21.73
2022-11-29T21:08:34.741Z,21.68
2022-11-29T21:11:09.811Z,26.30
2022-11-29T21:13:39.844Z,29.90
2022-11-29T21:16:13.328Z,32.95
2022-11-29T21:18:41.645Z,31.48
2022-11-29T21:21:20.714Z,29.30
2022-11-29T21:24:04.408Z,36.35
2022-11-29T21:26:51.341Z,41.48
2022-11-29T21:29:22.730Z,40.50
2022-11-29T21:31:53.640Z,33.85
2022-11-29T21:34:22.018Z,34.88
2022-11-29T21:36:59.000Z,39.10
2022-11-29T21:39:33.164Z,33.25
2022-11-29T21:42:06.003Z,31.07
2022-11-29T21:44:35.769Z,33.80
2022-11-29T21:47:04.440Z,34.63
2022-11-29T21:49:32.083Z,35.92
2022-11-29T21:52:00.940Z,34.88
2022-11-29T21:54:30.163Z,32.88
2022-11-29T21:56:59.712Z,33.80
2022-11-29T21:59:29.430Z,35.92
2022-11-29T22:01:57.579Z,42.58
2022-11-29T22:04:25.482Z,36.58
2022-11-29T22:06:54.274Z,34.80
2022-11-29T22:09:22.157Z,34.25
2022-11-29T22:11:50.171Z,34.60
2022-11-29T22:14:18.334Z,34.30
2022-11-29T22:16:53.738Z,35.00
2022-11-29T22:21:55.718Z,31.73
2022-11-29T22:24:27.523Z,31.87
2022-11-29T22:26:56.223Z,30.88
2022-11-29T22:29:24.832Z,35.95
2022-11-29T22:31:58.971Z,33.75
2022-11-29T22:34:27.853Z,38.67
2022-11-29T22:36:56.305Z,33.45
2022-11-29T22:39:24.320Z,35.13
2022-11-29T22:41:55.009Z,33.78
2022-11-29T22:44:24.696Z,27.13
2022-11-29T22:46:52.768Z,31.05
2022-11-29T22:49:20.461Z,30.85
2022-11-29T22:51:48.229Z,26.93
2022-11-29T22:54:18.075Z,27.17
2022-11-29T22:56:46.520Z,32.42
2022-11-29T22:59:14.468Z,31.27
2022-11-29T23:01:42.887Z,39.08
2022-11-29T23:04:13.637Z,34.38
2022-11-29T23:06:44.495Z,36.58
2022-11-29T23:09:16.406Z,43.00
2022-11-29T23:11:47.913Z,39.98
2022-11-29T23:14:15.830Z,35.38
2022-11-29T23:16:43.390Z,34.18
2022-11-29T23:19:11.984Z,28.20
2022-11-29T23:21:41.299Z,22.42
2022-11-29T23:24:09.423Z,18.57
2022-11-29T23:26:40.410Z,20.52
2022-11-29T23:29:11.918Z,21.10
2022-11-29T23:31:40.274Z,17.12
2022-11-29T23:34:08.702Z,26.02
2022-11-29T23:36:36.639Z,19.52
2022-11-29T23:39:09.085Z,22.07
2022-11-29T23:41:37.156Z,21.27
2022-11-29T23:44:05.711Z,21.50
2022-11-29T23:46:34.988Z,22.67
2022-11-29T23:49:03.034Z,22.05
2022-11-29T23:51:30.880Z,21.37
2022-11-29T23:53:58.505Z,25.68
2022-11-29T23:56:26.460Z,25.40
2022-11-29T23:58:54.098Z,22.50
